Nisbet, Pennsylvania
Current Conditions -  °F | °C
As of 9:54 AM on Friday 24 Oct 2014 (Local Time) from KIPT Reporting Station
Clear Clear  
Wind Chill: 56°   Ceiling: Unl
Heat Index: 56°   Visibility: 10mi
Dew Point: 39°   Wind: 17mph
Humidity: 53%   Direction: 260°W
Pressure: 29.94"   Gusts: NA
Location:  41.22°N, 77.11°W
Report Text: KIPT 241354Z 26015KT 10SM CLR 13/04 A2994 RMK AO2 SLP139 T01330039
Loading
Personal Weather Stations






























Interactive Weather Map
Tropical Storm Tracking
New forecast layout! Learn more

10-Day Weather Forecast

Advertisements
Track Severe Weather on mobile